Time;durP1;ratioP1;P1;durP2;ratioP2;P2;SDS_P1;SDS_P2;PMS_P1;PMS_P2;Temp;Humidity;BMP_temperature;BMP_pressure;BME280_temperature;BME280_humidity;BME280_pressure;Samples;Min_cycle;Max_cycle;Signal;HPM_P1;HPM_P2
2023/07/06 00:02:00;;;;;;;14.00;5.53;;;;;;;;;;5059429;28;20047;-72
2023/07/06 00:04:26;;;;;;;9.10;6.10;;;13.10;99.90;;;;;;5066770;28;20037;-72
2023/07/06 00:06:52;;;;;;;11.38;6.32;;;;;;;;;;5023044;28;20048;-72
2023/07/06 00:09:19;;;;;;;14.07;5.90;;;;;;;;;;5052212;28;20040;-72
2023/07/06 00:11:47;;;;;;;16.98;6.60;;;;;;;;;;5060244;28;20056;-72
2023/07/06 00:14:14;;;;;;;11.93;6.68;;;;;;;;;;5061534;28;20052;-72
2023/07/06 00:16:41;;;;;;;9.25;6.70;;;;;;;;;;5054697;28;20044;-72
2023/07/06 00:19:10;;;;;;;9.57;6.38;;;;;;;;;;5066192;28;20048;-72
2023/07/06 00:21:36;;;;;;;14.63;6.30;;;;;;;;;;5057114;28;20040;-72
2023/07/06 00:24:02;;;;;;;9.48;6.75;;;13.10;99.90;;;;;;5057379;28;20121;-72
2023/07/06 00:26:28;;;;;;;12.57;6.97;;;13.30;99.90;;;;;;5045291;28;20153;-72
2023/07/06 00:28:55;;;;;;;14.10;6.93;;;;;;;;;;5066561;28;20720;-72
2023/07/06 00:31:31;;;;;;;12.65;6.82;;;13.00;99.90;;;;;;5066303;28;20166;-72
2023/07/06 00:34:03;;;;;;;12.02;6.63;;;13.10;99.90;;;;;;5066785;28;20126;-72
2023/07/06 00:36:30;;;;;;;14.32;7.50;;;;;;;;;;5066228;28;20035;-72
2023/07/06 00:38:55;;;;;;;9.85;6.80;;;12.90;99.90;;;;;;5063640;28;20478;-72
2023/07/06 00:41:21;;;;;;;10.50;7.18;;;;;;;;;;5050445;28;20047;-72
2023/07/06 00:43:52;;;;;;;15.52;7.75;;;;;;;;;;5054196;28;20509;-72
2023/07/06 00:46:19;;;;;;;11.68;7.30;;;13.20;99.90;;;;;;5040021;28;20040;-72
2023/07/06 00:48:47;;;;;;;16.45;7.60;;;12.90;99.90;;;;;;5066008;28;20087;-72
2023/07/06 00:51:20;;;;;;;14.57;7.47;;;13.00;99.90;;;;;;5065900;28;20521;-72
2023/07/06 00:53:52;;;;;;;11.10;7.07;;;;;;;;;;5065997;28;20048;-72
2023/07/06 00:56:23;;;;;;;9.13;6.35;;;12.90;99.90;;;;;;5060690;28;20040;-72
2023/07/06 00:58:53;;;;;;;14.68;7.18;;;12.90;99.90;;;;;;5065937;28;20056;-72
2023/07/06 01:01:22;;;;;;;12.15;7.53;;;13.00;99.90;;;;;;5059482;28;20048;-72
2023/07/06 01:03:53;;;;;;;12.52;7.80;;;13.00;99.90;;;;;;5066019;28;20087;-72
2023/07/06 01:06:20;;;;;;;14.98;7.63;;;;;;;;;;5066068;28;20044;-72
2023/07/06 01:08:48;;;;;;;13.13;6.97;;;13.10;99.90;;;;;;5065854;28;20036;-72
2023/07/06 01:11:14;;;;;;;12.55;7.82;;;;;;;;;;5065619;28;20057;-72
2023/07/06 01:13:47;;;;;;;12.80;7.07;;;;;;;;;;5065928;28;20101;-72
2023/07/06 01:16:18;;;;;;;12.70;7.53;;;;;;;;;;5066007;28;20052;-72
2023/07/06 01:19:11;;;;;;;12.75;6.75;;;12.80;99.90;;;;;;5057998;28;20048;-72
2023/07/06 01:21:38;;;;;;;14.30;7.65;;;;;;;;;;5065163;28;20047;-72
2023/07/06 01:24:10;;;;;;;10.90;7.28;;;;;;;;;;5065552;28;20120;-72
2023/07/06 01:26:46;;;;;;;13.18;7.20;;;;;;;;;;5065736;28;20121;-72
2023/07/06 01:29:33;;;;;;;13.48;7.82;;;12.70;99.90;;;;;;5065923;28;20054;-72
2023/07/06 01:32:01;;;;;;;12.63;8.68;;;12.70;99.90;;;;;;5060087;28;20040;-72
2023/07/06 01:34:27;;;;;;;12.75;7.13;;;;;;;;;;5057114;28;20044;-72
2023/07/06 01:37:14;;;;;;;9.60;6.50;;;12.60;99.90;;;;;;5065402;28;20051;-72
2023/07/06 01:39:40;;;;;;;10.90;6.88;;;;;;;;;;5058239;28;20040;-72
2023/07/06 01:42:13;;;;;;;14.40;6.82;;;;;;;;;;5059354;28;20379;-72
2023/07/06 01:44:45;;;;;;;9.02;6.47;;;12.60;99.90;;;;;;5058764;28;20044;-72
2023/07/06 01:47:11;;;;;;;8.23;6.47;;;;;;;;;;5061069;28;20163;-72
2023/07/06 01:49:38;;;;;;;14.63;6.43;;;12.60;99.90;;;;;;5038292;28;20124;-72
2023/07/06 01:52:30;;;;;;;13.55;6.10;;;12.70;99.90;;;;;;5042339;28;20040;-72
2023/07/06 01:55:16;;;;;;;9.15;6.25;;;12.70;99.90;;;;;;5054166;28;20049;-72
2023/07/06 01:57:47;;;;;;;8.65;5.65;;;;;;;;;;5039597;28;20047;-72
2023/07/06 02:00:15;;;;;;;12.25;6.13;;;12.50;99.90;;;;;;5054242;28;20080;-72
2023/07/06 02:02:44;;;;;;;7.90;5.43;;;12.70;99.90;;;;;;5055794;28;20044;-72
2023/07/06 02:05:12;;;;;;;13.20;6.40;;;;;;;;;;5068949;28;20456;-72
2023/07/06 02:07:40;;;;;;;13.95;6.00;;;12.70;99.90;;;;;;5049488;28;20435;-72
2023/07/06 02:10:06;;;;;;;9.88;6.63;;;;;;;;;;5069123;28;20044;-72
2023/07/06 02:12:32;;;;;;;13.48;6.43;;;;;;;;;;5068588;28;20416;-72
2023/07/06 02:14:58;;;;;;;8.35;5.82;;;;;;;;;;5056022;28;20049;-72
2023/07/06 02:17:24;;;;;;;6.55;5.55;;;12.60;99.90;;;;;;5060621;28;20067;-72
2023/07/06 02:19:50;;;;;;;10.23;5.35;;;12.50;99.90;;;;;;5061444;28;20116;-72
2023/07/06 02:22:17;;;;;;;11.60;6.47;;;;;;;;;;5068553;28;20040;-73
2023/07/06 02:24:44;;;;;;;10.57;5.45;;;;;;;;;;5069355;28;20136;-72
2023/07/06 02:27:10;;;;;;;11.50;5.80;;;;;;;;;;5068692;28;20044;-72
2023/07/06 02:29:36;;;;;;;11.63;5.63;;;;;;;;;;5063601;28;20044;-72
2023/07/06 02:32:03;;;;;;;11.00;5.90;;;;;;;;;;5068818;28;20447;-72
2023/07/06 02:34:29;;;;;;;8.88;5.40;;;;;;;;;;5068789;28;20808;-72
2023/07/06 02:36:55;;;;;;;10.55;5.47;;;;;;;;;;5068608;28;20517;-72
2023/07/06 02:39:24;;;;;;;11.13;5.32;;;12.50;99.90;;;;;;5068577;28;20032;-72
2023/07/06 02:41:54;;;;;;;10.00;6.10;;;;;;;;;;5056647;28;20409;-72
2023/07/06 02:44:21;;;;;;;10.27;5.43;;;;;;;;;;5068391;28;20501;-72
2023/07/06 02:46:47;;;;;;;10.50;6.10;;;12.70;99.90;;;;;;5068584;28;20107;-72
2023/07/06 02:49:14;;;;;;;11.38;5.40;;;12.50;99.90;;;;;;5068078;28;21550;-72
2023/07/06 02:51:40;;;;;;;10.43;5.80;;;12.50;99.90;;;;;;5068601;28;20177;-72
2023/07/06 02:54:06;;;;;;;10.98;5.68;;;;;;;;;;5053374;28;20137;-72
2023/07/06 02:56:32;;;;;;;10.35;6.07;;;12.50;99.90;;;;;;5067868;28;20041;-72
2023/07/06 02:58:58;;;;;;;10.52;6.38;;;;;;;;;;5067927;28;20048;-72
2023/07/06 03:01:24;;;;;;;11.60;7.15;;;;;;;;;;5054254;28;20044;-72
2023/07/06 03:03:53;;;;;;;10.63;6.50;;;;;;;;;;5067897;28;20039;-72
2023/07/06 03:06:19;;;;;;;13.50;7.60;;;;;;;;;;5055992;28;20044;-72
2023/07/06 03:08:46;;;;;;;9.00;6.85;;;12.60;99.90;;;;;;5060537;28;20059;-72
2023/07/06 03:11:12;;;;;;;13.00;6.55;;;;;;;;;;5067437;28;20577;-72
2023/07/06 03:13:39;;;;;;;11.80;7.13;;;;;;;;;;5067808;28;20044;-72
2023/07/06 03:16:08;;;;;;;12.57;7.75;;;;;;;;;;5057557;28;20059;-72
2023/07/06 03:18:34;;;;;;;15.88;8.63;;;;;;;;;;5067925;28;20036;-72
2023/07/06 03:21:00;;;;;;;12.82;7.82;;;;;;;;;;5050758;28;20487;-73
2023/07/06 03:23:27;;;;;;;17.92;7.75;;;;;;;;;;5068052;28;20036;-72
2023/07/06 03:25:54;;;;;;;12.93;7.72;;;;;;;;;;5067661;28;20032;-72
2023/07/06 03:28:23;;;;;;;16.08;8.57;;;12.60;99.90;;;;;;5067982;28;20037;-72
2023/07/06 03:30:56;;;;;;;14.43;8.50;;;12.70;99.90;;;;;;5067584;28;20036;-72
2023/07/06 03:33:24;;;;;;;14.20;8.13;;;;;;;;;;5054819;28;20561;-72
2023/07/06 03:35:54;;;;;;;15.35;9.15;;;12.60;99.90;;;;;;5067689;28;20131;-72
2023/07/06 03:38:21;;;;;;;16.70;8.32;;;12.50;99.90;;;;;;5049654;28;20040;-72
2023/07/06 03:40:50;;;;;;;22.40;9.20;;;;;;;;;;5067381;28;20082;-72
2023/07/06 03:43:16;;;;;;;14.85;8.85;;;;;;;;;;5059687;28;20059;-72
2023/07/06 03:45:46;;;;;;;14.25;8.77;;;;;;;;;;5067101;28;20735;-72
2023/07/06 03:48:12;;;;;;;14.07;9.02;;;12.60;99.90;;;;;;5066970;28;20051;-72
2023/07/06 03:50:38;;;;;;;15.55;8.73;;;;;;;;;;5066681;28;20040;-72
2023/07/06 03:53:04;;;;;;;13.20;9.25;;;;;;;;;;5067260;28;20135;-72
2023/07/06 03:55:31;;;;;;;14.52;9.90;;;;;;;;;;5056011;28;20105;-72
2023/07/06 03:58:00;;;;;;;19.17;9.70;;;;;;;;;;5053945;28;20079;-72
2023/07/06 04:00:28;;;;;;;18.17;9.95;;;12.40;99.90;;;;;;5051204;28;20084;-72
2023/07/06 04:02:55;;;;;;;18.85;9.25;;;12.60;99.90;;;;;;5066862;28;20040;-72
2023/07/06 04:05:23;;;;;;;20.90;9.57;;;;;;;;;;5066984;28;20040;-72
2023/07/06 04:07:52;;;;;;;17.15;8.25;;;;;;;;;;5056461;28;20040;-72
2023/07/06 04:10:20;;;;;;;19.92;10.73;;;12.80;99.90;;;;;;5066451;28;20142;-72
2023/07/06 04:12:46;;;;;;;18.92;8.98;;;;;;;;;;5053247;28;20052;-72
2023/07/06 04:15:11;;;;;;;19.27;9.15;;;12.70;99.90;;;;;;5066939;28;20044;-72
2023/07/06 04:17:37;;;;;;;16.40;8.40;;;;;;;;;;5066312;28;20055;-72
2023/07/06 04:20:13;;;;;;;18.83;8.90;;;12.90;99.90;;;;;;5054968;28;20079;-74
2023/07/06 04:22:40;;;;;;;19.58;9.13;;;;;;;;;;5066583;28;20080;-73
2023/07/06 04:25:07;;;;;;;14.88;7.32;;;;;;;;;;5055971;28;20131;-71
2023/07/06 04:27:33;;;;;;;24.83;9.77;;;;;;;;;;5052676;28;20053;-72
2023/07/06 04:29:59;;;;;;;17.10;8.68;;;;;;;;;;5066275;28;20064;-73
2023/07/06 04:32:27;;;;;;;17.45;8.98;;;13.00;99.90;;;;;;5054755;28;20132;-71
2023/07/06 04:34:54;;;;;;;19.35;8.90;;;;;;;;;;5056806;28;20098;-75
2023/07/06 04:37:22;;;;;;;14.90;8.93;;;13.00;99.90;;;;;;5066005;28;20044;-71
2023/07/06 04:39:48;;;;;;;12.57;8.15;;;;;;;;;;5066189;28;20463;-74
2023/07/06 04:42:14;;;;;;;18.52;9.45;;;;;;;;;;5066275;28;20123;-73
2023/07/06 04:44:40;;;;;;;20.25;8.75;;;13.20;99.90;;;;;;5066206;28;20036;-72
2023/07/06 04:47:06;;;;;;;18.90;8.70;;;13.10;99.90;;;;;;5065719;28;20513;-71
2023/07/06 04:49:32;;;;;;;16.52;8.00;;;;;;;;;;5056931;28;20032;-73
2023/07/06 04:51:58;;;;;;;16.88;8.73;;;;;;;;;;5065943;28;20684;-72
2023/07/06 04:54:24;;;;;;;14.75;8.43;;;;;;;;;;5054746;28;20059;-73
2023/07/06 04:56:51;;;;;;;15.73;8.68;;;13.20;99.90;;;;;;5049219;28;20072;-72
2023/07/06 04:59:17;;;;;;;14.05;7.43;;;;;;;;;;5024671;28;20582;-72
2023/07/06 05:01:43;;;;;;;14.75;8.27;;;;;;;;;;5026975;28;20072;-72
2023/07/06 05:04:09;;;;;;;11.70;7.22;;;;;;;;;;5053614;28;20053;-72
2023/07/06 05:06:35;;;;;;;15.23;7.65;;;14.20;99.90;;;;;;5065330;28;20099;-72
2023/07/06 05:09:04;;;;;;;13.57;6.70;;;;;;;;;;5065645;28;20773;-72
2023/07/06 05:11:30;;;;;;;11.88;5.90;;;15.10;99.90;;;;;;5052514;28;20107;-72
2023/07/06 05:13:57;;;;;;;12.77;5.28;;;15.30;99.90;;;;;;5065596;28;20096;-72
2023/07/06 05:16:23;;;;;;;11.10;6.03;;;;;;;;;;5057907;28;20051;-72
2023/07/06 05:18:49;;;;;;;10.07;6.32;;;15.60;99.90;;;;;;5050434;28;20167;-72
2023/07/06 05:21:15;;;;;;;9.45;5.60;;;;;;;;;;5061172;28;20595;-72
2023/07/06 05:23:42;;;;;;;12.45;5.60;;;;;;;;;;5051289;28;20087;-72
2023/07/06 05:26:08;;;;;;;12.80;5.15;;;;;;;;;;5058186;28;20060;-72
2023/07/06 05:28:34;;;;;;;14.80;5.35;;;;;;;;;;5065332;28;20787;-72
2023/07/06 05:31:02;;;;;;;9.85;5.22;;;16.50;99.90;;;;;;5065371;28;20456;-72
2023/07/06 05:33:30;;;;;;;13.10;5.20;;;16.50;99.90;;;;;;5065140;28;20566;-72
2023/07/06 05:35:56;;;;;;;13.82;5.80;;;16.30;99.90;;;;;;5064921;28;20044;-72
2023/07/06 05:38:22;;;;;;;14.73;5.07;;;;;;;;;;5055275;28;20039;-72
2023/07/06 05:40:48;;;;;;;12.18;5.30;;;;;;;;;;5060444;28;20044;-72
2023/07/06 05:43:16;;;;;;;14.07;5.35;;;17.30;99.90;;;;;;5069012;28;20044;-72
2023/07/06 05:45:42;;;;;;;12.45;4.90;;;;;;;;;;5056366;28;20044;-72
2023/07/06 05:48:08;;;;;;;13.70;5.00;;;;;;;;;;5071477;28;20572;-72
2023/07/06 05:50:34;;;;;;;11.18;5.05;;;;;;;;;;5071511;28;20044;-72
2023/07/06 05:53:02;;;;;;;10.57;4.47;;;18.70;99.90;;;;;;5070406;28;20090;-72
2023/07/06 05:55:29;;;;;;;8.90;4.53;;;19.00;99.90;;;;;;5062178;28;20044;-72
2023/07/06 05:57:55;;;;;;;12.43;4.43;;;;;;;;;;5062575;28;20056;-72
2023/07/06 06:00:21;;;;;;;10.85;4.07;;;19.10;99.90;;;;;;5071093;28;20039;-72
2023/07/06 06:02:47;;;;;;;13.85;3.83;;;19.20;99.90;;;;;;5054009;28;20545;-72
2023/07/06 06:05:15;;;;;;;11.75;4.35;;;;;;;;;;5068012;28;20051;-72
2023/07/06 06:07:45;;;;;;;9.50;4.38;;;19.10;99.90;;;;;;5070003;28;20041;-72
2023/07/06 06:10:12;;;;;;;13.38;4.60;;;19.20;99.90;;;;;;5040526;28;20854;-72
2023/07/06 06:12:38;;;;;;;11.95;4.20;;;19.20;99.90;;;;;;5071768;28;20402;-72
2023/07/06 06:15:04;;;;;;;9.43;3.53;;;19.00;99.90;;;;;;5059365;28;20048;-72
2023/07/06 06:17:30;;;;;;;10.43;4.03;;;18.50;99.90;;;;;;5061925;28;20122;-72
2023/07/06 06:19:56;;;;;;;7.85;4.40;;;;;;;;;;5060143;28;20185;-73
2023/07/06 06:22:22;;;;;;;13.18;4.47;;;18.20;99.90;;;;;;5071170;28;20487;-73
2023/07/06 06:24:48;;;;;;;18.27;5.57;;;18.10;99.90;;;;;;5073382;28;20044;-72
2023/07/06 06:27:15;;;;;;;11.23;4.70;;;18.10;99.90;;;;;;5069404;28;20039;-72
2023/07/06 06:29:42;;;;;;;15.55;5.78;;;18.10;99.90;;;;;;5067873;28;20119;-72
2023/07/06 06:32:11;;;;;;;11.70;4.15;;;17.90;99.90;;;;;;5068448;28;20099;-72
2023/07/06 06:34:38;;;;;;;15.95;4.32;;;18.10;99.90;;;;;;5068037;28;20044;-72
2023/07/06 06:37:04;;;;;;;13.20;4.60;;;18.00;99.90;;;;;;5075216;28;20036;-72
2023/07/06 06:39:31;;;;;;;18.20;4.78;;;18.20;99.90;;;;;;5059650;28;20090;-72
2023/07/06 06:41:57;;;;;;;12.25;5.80;;;18.30;99.90;;;;;;5067999;28;20044;-72
2023/07/06 06:44:22;;;;;;;14.80;5.45;;;18.20;99.90;;;;;;5059455;28;20048;-72
2023/07/06 06:46:48;;;;;;;12.52;5.15;;;;;;;;;;5068030;28;20047;-73
2023/07/06 06:49:14;;;;;;;15.35;6.10;;;18.00;99.90;;;;;;5069334;28;20072;-73
2023/07/06 06:51:40;;;;;;;14.45;5.35;;;;;;;;;;5068871;28;20111;-73
2023/07/06 06:54:06;;;;;;;16.25;5.97;;;18.10;99.90;;;;;;5054210;28;20059;-72
2023/07/06 06:56:32;;;;;;;15.07;5.35;;;17.90;99.90;;;;;;5067678;28;20032;-72
2023/07/06 06:58:58;;;;;;;17.80;5.32;;;;;;;;;;5059560;28;20094;-72
2023/07/06 07:01:25;;;;;;;17.67;6.40;;;;;;;;;;5056935;28;20051;-72
2023/07/06 07:03:51;;;;;;;15.85;5.95;;;;;;;;;;5053484;28;20048;-72
2023/07/06 07:06:17;;;;;;;18.48;5.30;;;17.70;99.90;;;;;;5067774;28;20417;-73
2023/07/06 07:08:43;;;;;;;14.57;5.30;;;;;;;;;;5056361;28;20048;-73
2023/07/06 07:11:10;;;;;;;12.65;6.20;;;17.80;99.90;;;;;;5067529;28;20050;-73
2023/07/06 07:13:37;;;;;;;14.88;6.13;;;17.60;99.90;;;;;;5053508;28;20084;-73
2023/07/06 07:16:04;;;;;;;11.45;4.80;;;17.70;99.90;;;;;;5073636;28;20126;-72
2023/07/06 07:18:30;;;;;;;14.00;5.43;;;;;;;;;;5071105;28;20032;-73
2023/07/06 07:20:56;;;;;;;11.57;5.75;;;;;;;;;;5069685;28;20457;-73
2023/07/06 07:23:24;;;;;;;15.82;6.10;;;17.70;99.90;;;;;;5060149;28;20094;-73
2023/07/06 07:25:50;;;;;;;16.90;6.05;;;17.80;99.90;;;;;;5065424;28;20440;-73
2023/07/06 07:28:17;;;;;;;16.33;5.97;;;;;;;;;;5064783;28;20809;-72
2023/07/06 07:30:46;;;;;;;13.10;5.45;;;17.80;99.90;;;;;;5045038;28;20036;-72
2023/07/06 07:33:12;;;;;;;15.15;5.93;;;;;;;;;;5052645;28;20051;-74
2023/07/06 07:35:41;;;;;;;16.85;5.97;;;17.90;99.90;;;;;;5057406;28;20032;-74
2023/07/06 07:38:07;;;;;;;9.73;4.55;;;;;;;;;;5064990;28;20406;-74
2023/07/06 07:40:34;;;;;;;10.20;4.35;;;17.90;99.90;;;;;;5052740;28;20048;-73
2023/07/06 07:42:59;;;;;;;10.63;4.22;;;17.90;99.90;;;;;;5062544;28;20068;-73
2023/07/06 07:45:25;;;;;;;9.95;4.30;;;17.90;99.90;;;;;;5060497;28;20040;-72
2023/07/06 07:47:51;;;;;;;11.70;4.63;;;;;;;;;;5063814;28;20809;-72
2023/07/06 07:50:17;;;;;;;11.20;4.43;;;;;;;;;;5061098;28;20040;-73
2023/07/06 07:52:43;;;;;;;9.85;4.68;;;;;;;;;;5063596;28;20151;-72
2023/07/06 07:55:10;;;;;;;8.23;4.28;;;;;;;;;;5044453;28;20509;-72
2023/07/06 07:57:37;;;;;;;9.13;4.05;;;;;;;;;;5070046;28;20045;-71
2023/07/06 08:00:06;;;;;;;8.40;4.20;;;17.90;99.90;;;;;;5060550;28;20051;-72
2023/07/06 08:02:32;;;;;;;7.63;2.90;;;;;;;;;;5058960;28;20045;-72
2023/07/06 08:05:03;;;;;;;8.32;3.17;;;;;;;;;;5036299;28;20052;-72
2023/07/06 08:07:31;;;;;;;6.40;3.20;;;;;;;;;;5052983;28;20768;-72
2023/07/06 08:09:57;;;;;;;12.02;3.55;;;;;;;;;;5051756;28;20052;-72
2023/07/06 08:12:23;;;;;;;11.48;3.67;;;17.80;99.90;;;;;;5066361;28;20513;-72
2023/07/06 08:14:49;;;;;;;28.45;5.00;;;;;;;;;;5059261;28;20052;-71
2023/07/06 08:17:16;;;;;;;9.00;3.92;;;17.80;99.90;;;;;;5057207;28;20552;-72
2023/07/06 08:19:42;;;;;;;10.95;2.90;;;;;;;;;;5056643;28;20052;-71
2023/07/06 08:22:08;;;;;;;7.15;2.58;;;;;;;;;;5066519;28;20774;-71
2023/07/06 08:24:36;;;;;;;6.00;2.08;;;18.00;99.90;;;;;;5066393;28;20041;-72
2023/07/06 08:27:03;;;;;;;9.38;2.70;;;;;;;;;;5052426;28;20493;-73
2023/07/06 08:29:28;;;;;;;6.65;2.83;;;18.00;99.90;;;;;;5051999;28;20127;-72
2023/07/06 08:31:56;;;;;;;9.20;2.20;;;;;;;;;;5050122;28;20455;-72
2023/07/06 08:34:22;;;;;;;8.98;2.92;;;;;;;;;;5053898;28;20539;-71
2023/07/06 08:36:49;;;;;;;9.02;2.78;;;;;;;;;;5049646;28;20161;-73
2023/07/06 08:39:14;;;;;;;5.07;2.30;;;18.30;99.90;;;;;;5066414;28;20048;-72
2023/07/06 08:41:44;;;;;;;6.43;1.90;;;18.40;99.90;;;;;;5060661;28;20047;-72
2023/07/06 08:44:12;;;;;;;6.35;2.00;;;18.30;99.90;;;;;;5065885;28;20132;-73
2023/07/06 08:46:47;;;;;;;6.60;2.38;;;18.20;99.90;;;;;;5066284;28;20109;-72
2023/07/06 08:49:31;;;;;;;9.95;2.42;;;18.10;99.90;;;;;;5065624;28;20110;-72
2023/07/06 08:52:05;;;;;;;6.07;2.00;;;18.30;99.90;;;;;;5058517;28;20505;-72
2023/07/06 08:54:35;;;;;;;5.63;2.35;;;18.40;99.90;;;;;;5055295;28;20040;-72
2023/07/06 08:57:01;;;;;;;6.95;2.20;;;;;;;;;;5060611;28;20040;-72
2023/07/06 08:59:41;;;;;;;5.18;2.15;;;18.60;99.90;;;;;;5065791;28;20141;-72
2023/07/06 09:02:18;;;;;;;7.05;1.83;;;18.90;99.90;;;;;;5047247;28;20521;-73
2023/07/06 09:04:46;;;;;;;7.75;2.78;;;18.60;99.90;;;;;;5068387;28;20877;-73
2023/07/06 09:07:18;;;;;;;21.33;3.67;;;18.60;99.90;;;;;;5067197;28;20460;-68
2023/07/06 09:09:46;;;;;;;26.35;3.80;;;18.50;99.90;;;;;;5066117;28;20040;-69
2023/07/06 09:12:24;;;;;;;19.08;3.38;;;18.60;99.90;;;;;;5066384;28;20055;-68
2023/07/06 09:14:53;;;;;;;4.38;2.10;;;18.60;99.90;;;;;;5070067;28;20036;-68
2023/07/06 09:17:20;;;;;;;5.95;1.77;;;18.40;99.90;;;;;;5066334;28;20040;-68
2023/07/06 09:19:46;;;;;;;7.03;1.70;;;18.70;99.90;;;;;;5062130;28;20799;-68
2023/07/06 09:22:12;;;;;;;10.20;1.70;;;18.70;99.90;;;;;;5069082;28;20048;-69
2023/07/06 09:24:38;;;;;;;14.68;2.03;;;18.80;99.90;;;;;;5066126;28;20033;-68
2023/07/06 09:27:17;;;;;;;3.55;1.30;;;18.60;99.90;;;;;;5069508;28;20040;-68
2023/07/06 09:29:44;;;;;;;5.90;1.55;;;;;;;;;;5069036;28;20064;-68
2023/07/06 09:32:24;;;;;;;6.07;1.48;;;18.60;99.90;;;;;;5060017;28;20082;-68
2023/07/06 09:35:06;;;;;;;5.57;1.42;;;18.50;99.90;;;;;;5069414;28;20747;-68
2023/07/06 09:37:32;;;;;;;3.08;0.95;;;;;;;;;;5071698;28;20140;-68
2023/07/06 09:40:01;;;;;;;2.97;1.00;;;18.60;99.90;;;;;;5069029;28;20826;-68
2023/07/06 09:42:28;;;;;;;4.13;0.90;;;;;;;;;;5047073;28;20043;-67
2023/07/06 09:44:54;;;;;;;3.92;1.15;;;18.70;99.90;;;;;;5069204;28;20759;-68
2023/07/06 09:47:20;;;;;;;3.08;1.08;;;;;;;;;;5056339;28;20040;-69
2023/07/06 09:49:54;;;;;;;3.33;0.80;;;19.30;99.90;;;;;;5060224;28;20728;-69
2023/07/06 09:52:21;;;;;;;3.72;0.88;;;19.40;99.90;;;;;;5056648;28;20044;-68
2023/07/06 09:55:07;;;;;;;2.53;1.23;;;19.40;99.90;;;;;;5068770;28;20033;-69
2023/07/06 09:57:35;;;;;;;3.92;0.93;;;19.80;99.90;;;;;;5067822;28;20091;-69
2023/07/06 10:00:03;;;;;;;5.80;1.35;;;19.60;99.90;;;;;;5071497;28;20032;-69
2023/07/06 10:02:50;;;;;;;4.03;1.38;;;19.60;99.90;;;;;;5065863;28;20071;-69
2023/07/06 10:05:39;;;;;;;5.10;1.10;;;19.70;99.90;;;;;;5053206;28;20132;-69
2023/07/06 10:08:16;;;;;;;2.42;0.88;;;19.80;99.90;;;;;;5054580;28;20526;-68
2023/07/06 10:10:50;;;;;;;3.17;0.70;;;20.00;99.90;;;;;;5066383;28;20032;-69
2023/07/06 10:13:34;;;;;;;2.58;0.90;;;19.90;99.90;;;;;;5065162;28;20056;-69
2023/07/06 10:15:59;;;;;;;6.37;1.27;;;20.00;99.90;;;;;;5064701;28;20037;-69
2023/07/06 10:18:33;;;;;;;5.35;1.00;;;20.20;99.90;;;;;;5070411;28;20051;-69
2023/07/06 10:21:27;;;;;;;4.50;1.27;;;20.20;99.90;;;;;;5071666;28;20040;-69
2023/07/06 10:24:30;;;;;;;5.90;0.93;;;20.30;99.90;;;;;;5069181;28;20044;-69
2023/07/06 10:26:59;;;;;;;4.88;1.33;;;20.40;99.90;;;;;;5067739;28;20074;-69
2023/07/06 10:29:48;;;;;;;5.18;1.65;;;20.40;99.90;;;;;;5056568;28;20040;-69
2023/07/06 10:32:24;;;;;;;4.60;1.50;;;20.30;99.90;;;;;;5066790;28;20502;-69
2023/07/06 10:34:54;;;;;;;5.47;1.13;;;20.10;99.90;;;;;;5067806;28;20041;-69
2023/07/06 10:37:24;;;;;;;3.38;1.30;;;20.50;99.90;;;;;;5057745;28;20048;-68
2023/07/06 10:39:58;;;;;;;4.60;1.45;;;20.30;99.90;;;;;;5068040;28;20040;-69
2023/07/06 10:42:26;;;;;;;3.72;1.27;;;20.60;99.90;;;;;;5055664;28;20416;-68
2023/07/06 10:44:58;;;;;;;3.85;1.30;;;20.80;99.90;;;;;;5068330;28;20044;-69
2023/07/06 10:47:33;;;;;;;3.95;1.00;;;20.50;99.90;;;;;;5053176;28;20052;-69
2023/07/06 10:50:07;;;;;;;4.82;1.33;;;20.50;99.90;;;;;;5055298;28;20726;-69
2023/07/06 10:52:43;;;;;;;;;;;20.50;99.90;;;;;;5063629;28;20391;-69
2023/07/06 10:55:10;;;;;;;3.67;1.05;;;20.40;99.90;;;;;;5067993;28;19924;-69
2023/07/06 10:57:42;;;;;;;2.83;0.98;;;20.50;99.90;;;;;;5068718;28;20102;-69
2023/07/06 11:00:18;;;;;;;3.60;1.00;;;20.70;99.90;;;;;;5065222;28;20080;-69
2023/07/06 11:02:45;;;;;;;7.32;1.33;;;20.80;99.90;;;;;;5049134;28;20040;-69
2023/07/06 11:05:36;;;;;;;1.85;0.80;;;20.80;99.90;;;;;;5068661;28;20115;-69
2023/07/06 11:08:10;;;;;;;5.47;1.05;;;20.80;99.90;;;;;;5067168;28;20040;-69
2023/07/06 11:10:38;;;;;;;3.72;1.10;;;20.70;99.90;;;;;;5067964;28;20182;-69
2023/07/06 11:13:17;;;;;;;6.20;1.35;;;21.00;99.90;;;;;;5067004;28;20059;-69
2023/07/06 11:15:48;;;;;;;4.88;1.13;;;21.20;99.90;;;;;;5053853;28;20052;-68
2023/07/06 11:18:26;;;;;;;3.00;1.40;;;21.10;99.90;;;;;;5067746;28;20089;-69
2023/07/06 11:21:21;;;;;;;3.20;0.90;;;21.10;99.90;;;;;;5067264;28;20097;-69
2023/07/06 11:24:21;;;;;;;3.08;1.10;;;21.30;99.90;;;;;;5070862;28;20038;-69
2023/07/06 11:26:54;;;;;;;4.10;0.93;;;21.50;99.90;;;;;;5006331;28;20040;-69
2023/07/06 11:29:24;;;;;;;3.70;1.00;;;21.30;99.90;;;;;;5071926;28;20044;-70
2023/07/06 11:32:37;;;;;;;6.07;1.00;;;21.50;99.90;;;;;;5067884;28;20048;-69
2023/07/06 11:35:31;;;;;;;2.53;0.68;;;21.60;99.90;;;;;;5067518;28;20139;-68
2023/07/06 11:37:59;;;;;;;5.38;1.42;;;21.50;99.90;;;;;;5066854;28;20083;-69
2023/07/06 11:40:46;;;;;;;2.15;0.77;;;21.70;99.90;;;;;;5058170;28;20486;-69
2023/07/06 11:43:32;;;;;;;4.85;1.60;;;21.60;99.90;;;;;;5066109;28;20157;-69
2023/07/06 11:46:14;;;;;;;3.33;0.77;;;21.50;99.90;;;;;;5053026;28;20409;-69
2023/07/06 11:48:56;;;;;;;3.95;1.48;;;21.60;99.90;;;;;;5058881;28;20044;-69
2023/07/06 11:51:22;;;;;;;4.18;0.88;;;22.00;99.90;;;;;;5068903;28;20040;-69
2023/07/06 11:56:35;;;;;;;3.33;1.40;;;21.70;99.90;;;;;;5068701;28;20177;-69
2023/07/06 11:59:04;;;;;;;4.38;1.17;;;21.50;99.90;;;;;;5060859;28;20044;-69
2023/07/06 12:04:09;;;;;;;5.57;1.23;;;21.50;99.90;;;;;;5063112;28;20185;-70
2023/07/06 12:06:34;;;;;;;6.60;1.10;;;21.60;99.90;;;;;;5069040;28;20074;-69
2023/07/06 12:09:01;;;;;;;3.90;1.13;;;21.70;99.90;;;;;;5059693;28;20099;-69
2023/07/06 12:11:27;;;;;;;8.32;1.77;;;23.00;99.90;;;;;;5066547;28;20052;-69
2023/07/06 12:13:55;;;;;;;4.75;1.52;;;21.80;99.90;;;;;;5060031;28;20525;-69
2023/07/06 12:16:54;;;;;;;4.50;1.48;;;21.70;99.90;;;;;;5066928;28;20059;-69
2023/07/06 12:19:21;;;;;;;2.95;1.27;;;21.70;99.90;;;;;;5043250;28;20749;-69
2023/07/06 12:21:53;;;;;;;9.27;1.33;;;21.50;99.90;;;;;;5054905;28;20045;-69
2023/07/06 12:24:22;;;;;;;5.72;1.42;;;21.30;99.90;;;;;;5060472;28;20045;-69
2023/07/06 12:26:55;;;;;;;4.88;1.38;;;21.30;99.90;;;;;;5051467;28;20048;-69
2023/07/06 12:29:29;;;;;;;4.00;1.23;;;21.20;99.90;;;;;;5048276;28;20170;-69
2023/07/06 12:32:00;;;;;;;5.53;1.50;;;21.20;99.90;;;;;;5052211;28;20048;-69
2023/07/06 12:34:32;;;;;;;5.55;1.20;;;21.30;99.90;;;;;;5052448;28;20906;-69
2023/07/06 12:37:00;;;;;;;4.00;1.40;;;21.10;99.90;;;;;;5064357;28;20040;-69
2023/07/06 12:39:27;;;;;;;6.53;1.48;;;21.20;99.90;;;;;;5058797;28;20049;-69
2023/07/06 12:41:54;;;;;;;6.18;1.50;;;21.10;99.90;;;;;;5050105;28;20048;-69
2023/07/06 12:44:22;;;;;;;3.83;1.05;;;21.20;99.90;;;;;;5053482;28;20059;-69
2023/07/06 12:46:53;;;;;;;4.90;0.85;;;21.30;99.90;;;;;;5061409;28;20525;-69
2023/07/06 12:49:21;;;;;;;4.30;0.90;;;21.40;99.90;;;;;;5059037;28;20154;-69
2023/07/06 12:51:58;;;;;;;3.78;1.60;;;21.40;99.90;;;;;;5060912;28;20452;-69
2023/07/06 12:54:25;;;;;;;5.80;1.23;;;21.70;99.90;;;;;;5040998;28;20121;-69
2023/07/06 12:57:05;;;;;;;6.10;1.45;;;21.60;99.90;;;;;;5066630;28;20032;-69
2023/07/06 12:59:36;;;;;;;6.72;2.10;;;21.40;99.90;;;;;;5069093;28;20047;-69
2023/07/06 13:02:19;;;;;;;4.50;1.70;;;21.40;99.90;;;;;;5069818;28;20051;-69
2023/07/06 13:04:47;;;;;;;6.68;1.70;;;21.40;99.90;;;;;;5064822;28;20051;-69
2023/07/06 13:07:17;;;;;;;6.20;1.58;;;21.30;99.90;;;;;;5065645;28;20529;-69
2023/07/06 13:09:43;;;;;;;5.57;1.55;;;21.00;99.90;;;;;;5065773;28;20040;-69
2023/07/06 13:12:17;;;;;;;6.78;1.20;;;20.90;99.90;;;;;;5065499;28;20537;-69
2023/07/06 13:14:45;;;;;;;2.58;1.15;;;21.30;99.90;;;;;;5059583;28;20056;-69
2023/07/06 13:17:23;;;;;;;5.35;1.10;;;21.00;99.90;;;;;;5066161;28;20083;-69
2023/07/06 13:19:49;;;;;;;3.53;0.88;;;21.20;99.90;;;;;;5065992;28;20040;-69
2023/07/06 13:22:15;;;;;;;3.28;1.10;;;21.10;99.90;;;;;;5056988;28;20087;-69
2023/07/06 13:24:41;;;;;;;4.03;1.20;;;21.20;99.90;;;;;;5065499;28;20789;-69
2023/07/06 13:27:16;;;;;;;5.00;1.25;;;21.20;99.90;;;;;;5065946;28;20170;-69
2023/07/06 13:29:41;;;;;;;8.02;1.70;;;21.40;99.90;;;;;;5056151;28;20786;-69
2023/07/06 13:32:16;;;;;;;4.30;1.23;;;21.20;99.90;;;;;;5054473;28;20099;-69
2023/07/06 13:34:43;;;;;;;6.03;1.20;;;21.00;99.90;;;;;;5057836;28;20041;-69
2023/07/06 13:37:18;;;;;;;8.30;2.08;;;20.90;99.90;;;;;;5046858;28;20131;-69
2023/07/06 13:39:44;;;;;;;5.68;1.75;;;20.90;99.90;;;;;;5064608;28;20049;-69